Time;durP1;ratioP1;P1;durP2;ratioP2;P2;SDS_P1;SDS_P2;PMS_P1;PMS_P2;Temp;Humidity;BMP_temperature;BMP_pressure;BME280_temperature;BME280_humidity;BME280_pressure;Samples;Min_cycle;Max_cycle;Signal;HPM_P1;HPM_P2
2022/05/20 00:02:25;;;;;;;13.38;11.23;;;;;;;19.26;82.24;99350.44;2621741;47;20019;-67
2022/05/20 00:04:55;;;;;;;11.43;10.23;;;;;;;19.24;82.22;99347.19;2621237;54;20554;-67
2022/05/20 00:07:27;;;;;;;12.70;11.18;;;;;;;19.23;82.44;99346.38;2621693;47;20054;-68
2022/05/20 00:09:58;;;;;;;13.15;11.75;;;;;;;19.24;82.17;99345.31;2620340;54;20034;-67
2022/05/20 00:12:27;;;;;;;13.00;11.68;;;;;;;19.22;82.02;99347.41;2621211;39;20548;-68
2022/05/20 00:14:57;;;;;;;14.27;12.82;;;;;;;19.14;81.67;99337.06;2622694;54;20052;-68
2022/05/20 00:17:26;;;;;;;14.18;12.75;;;;;;;19.09;82.13;99334.28;2622023;54;20062;-68
2022/05/20 00:19:57;;;;;;;14.20;12.68;;;;;;;19.04;82.53;99329.63;2621609;54;20041;-67
2022/05/20 00:22:29;;;;;;;14.38;12.98;;;;;;;19.06;82.80;99318.66;2621862;39;20474;-68
2022/05/20 00:27:41;;;;;;;13.52;12.10;;;;;;;19.23;82.77;99326.81;2619034;54;20057;-66
2022/05/20 00:30:12;;;;;;;16.10;13.75;;;;;;;19.18;82.72;99330.19;2619372;47;20041;-69
2022/05/20 00:32:43;;;;;;;14.20;12.50;;;;;;;19.25;83.19;99341.59;2618714;54;20037;-67
2022/05/20 00:35:14;;;;;;;14.55;13.05;;;;;;;19.30;82.87;99341.69;2619267;39;20411;-66
2022/05/20 00:37:46;;;;;;;15.02;12.93;;;;;;;19.35;82.52;99350.88;2623053;54;20058;-67
2022/05/20 00:40:18;;;;;;;13.70;12.30;;;;;;;19.32;82.54;99346.84;2623895;54;20027;-67
2022/05/20 00:42:48;;;;;;;17.05;12.68;;;;;;;19.28;82.62;99354.53;2623566;54;20035;-67
2022/05/20 00:45:20;;;;;;;17.30;12.25;;;;;;;19.32;82.29;99351.38;2624905;54;20023;-68
2022/05/20 00:47:50;;;;;;;14.45;12.93;;;;;;;19.35;81.74;99356.25;2619400;54;20056;-68
2022/05/20 00:50:20;;;;;;;14.95;12.82;;;;;;;19.31;82.10;99358.63;2619277;54;20045;-68
2022/05/20 00:52:53;;;;;;;15.13;13.60;;;;;;;19.27;81.68;99350.22;2618750;47;20042;-68
2022/05/20 00:55:25;;;;;;;15.32;13.57;;;;;;;19.10;81.89;99346.63;2620365;54;20030;-67
2022/05/20 00:58:00;;;;;;;14.48;13.05;;;;;;;19.05;82.29;99341.97;2620318;54;20030;-67
2022/05/20 01:00:32;;;;;;;13.88;12.52;;;;;;;19.01;82.66;99331.94;2620994;54;20078;-66
2022/05/20 01:03:06;;;;;;;14.30;12.60;;;;;;;19.04;82.46;99321.59;2619953;54;20042;-68
2022/05/20 01:05:39;;;;;;;14.93;12.77;;;;;;;19.10;82.72;99319.81;2620166;54;20037;-66
2022/05/20 01:08:16;;;;;;;15.18;13.57;;;;;;;19.16;82.59;99323.44;2618885;54;20048;-67
2022/05/20 01:10:46;;;;;;;19.45;11.88;;;;;;;19.16;82.91;99321.56;2622576;47;20031;-68
2022/05/20 01:13:18;;;;;;;12.77;11.23;;;;;;;19.21;82.59;99321.66;2621904;54;20034;-67
2022/05/20 01:15:49;;;;;;;13.48;12.05;;;;;;;19.23;82.38;99326.81;2622508;54;20031;-68
2022/05/20 01:18:19;;;;;;;15.18;11.90;;;;;;;19.25;81.98;99330.88;2622824;54;20050;-66
2022/05/20 01:20:53;;;;;;;15.02;12.43;;;;;;;19.19;82.14;99331.03;2622411;54;20038;-68
2022/05/20 01:23:27;;;;;;;15.52;12.38;;;;;;;19.21;82.20;99340.44;2622586;54;20039;-67
2022/05/20 01:25:59;;;;;;;14.02;12.57;;;;;;;19.20;81.70;99325.41;2622531;54;20073;-67
2022/05/20 01:28:31;;;;;;;12.55;11.45;;;;;;;19.08;82.15;99313.91;2624051;39;20467;-67
2022/05/20 01:31:03;;;;;;;14.38;13.00;;;;;;;18.99;81.74;99315.31;2623792;54;20043;-67
2022/05/20 01:33:36;;;;;;;14.68;12.63;;;;;;;18.88;82.04;99322.28;2622711;54;20030;-68
2022/05/20 01:36:08;;;;;;;14.50;12.90;;;;;;;18.74;82.73;99318.25;2621263;54;20023;-67
2022/05/20 01:38:41;;;;;;;12.82;11.60;;;;;;;18.83;83.50;99324.88;2621293;54;20057;-67
2022/05/20 01:41:14;;;;;;;14.20;11.48;;;;;;;18.95;83.19;99319.50;2621072;54;20046;-67
2022/05/20 01:43:52;;;;;;;16.40;12.17;;;;;;;19.04;82.89;99316.22;2620743;39;20423;-68
2022/05/20 01:46:30;;;;;;;13.50;12.30;;;;;;;19.06;82.58;99310.63;2621038;54;20271;-67
2022/05/20 01:49:12;;;;;;;16.38;13.43;;;;;;;19.02;82.37;99328.22;2621072;54;20033;-68
2022/05/20 01:51:49;;;;;;;14.23;12.93;;;;;;;18.98;82.33;99337.78;2621524;54;20037;-66
2022/05/20 01:54:28;;;;;;;13.32;11.98;;;;;;;18.85;83.03;99333.47;2621284;54;20030;-67
2022/05/20 01:57:05;;;;;;;13.38;11.98;;;;;;;18.86;83.25;99340.47;2620788;54;20035;-69
2022/05/20 01:59:40;;;;;;;16.52;11.73;;;;;;;18.86;83.58;99337.81;2622256;54;20030;-67
2022/05/20 02:02:16;;;;;;;15.13;12.75;;;;;;;18.98;83.33;99321.69;2623100;47;20061;-68
2022/05/20 02:04:53;;;;;;;16.67;11.63;;;;;;;19.09;83.05;99320.88;2621147;54;20031;-66
2022/05/20 02:07:28;;;;;;;14.20;12.70;;;;;;;19.08;83.00;99327.28;2621916;54;20032;-68
2022/05/20 02:10:07;;;;;;;13.70;10.82;;;;;;;19.04;82.63;99328.81;2622044;54;20078;-66
2022/05/20 02:12:42;;;;;;;13.38;12.07;;;;;;;19.04;82.56;99334.16;2620835;54;20034;-66
2022/05/20 02:15:17;;;;;;;14.52;12.18;;;;;;;18.85;82.34;99333.47;2623568;54;20042;-66
2022/05/20 02:17:52;;;;;;;13.57;12.18;;;;;;;18.74;82.91;99334.31;2622811;47;20035;-67
2022/05/20 02:20:28;;;;;;;14.10;11.55;;;;;;;18.82;83.41;99336.63;2622980;54;20031;-66
2022/05/20 02:23:03;;;;;;;15.30;13.70;;;;;;;18.91;83.62;99329.88;2623853;54;20078;-66
2022/05/20 02:25:39;;;;;;;15.13;12.18;;;;;;;18.95;83.39;99327.53;2622203;54;20030;-66
2022/05/20 02:28:15;;;;;;;20.00;13.65;;;;;;;18.99;83.05;99318.00;2623341;54;20034;-67
2022/05/20 02:30:47;;;;;;;14.18;12.45;;;;;;;19.05;83.36;99317.84;2623154;54;20574;-67
2022/05/20 02:33:20;;;;;;;12.85;11.55;;;;;;;19.11;82.89;99316.13;2621736;54;20038;-67
2022/05/20 02:35:50;;;;;;;12.27;11.02;;;;;;;19.10;82.58;99308.28;2622247;54;20526;-67
2022/05/20 02:38:22;;;;;;;13.65;12.25;;;;;;;19.08;82.43;99313.09;2622063;54;20027;-66
2022/05/20 02:40:56;;;;;;;13.60;12.30;;;;;;;19.03;82.71;99322.63;2621602;54;20026;-66
2022/05/20 02:43:26;;;;;;;;;;;;;;;19.06;82.24;99321.34;2626660;39;20463;-66
2022/05/20 02:45:55;;;;;;;14.07;12.65;;;;;;;19.04;81.54;99315.41;2627173;54;19947;-66
2022/05/20 02:48:25;;;;;;;13.27;11.93;;;;;;;18.88;81.49;99321.50;2627596;39;20419;-66
2022/05/20 02:50:55;;;;;;;13.75;12.23;;;;;;;18.80;82.04;99318.09;2623949;47;20031;-67
2022/05/20 02:53:24;;;;;;;12.93;11.23;;;;;;;18.75;82.21;99315.31;2624605;54;20054;-67
2022/05/20 02:55:57;;;;;;;12.43;11.23;;;;;;;18.77;82.35;99317.75;2623333;54;20030;-66
2022/05/20 03:06:33;;;;;;;13.93;12.23;;;;;;;18.60;82.98;99296.19;2623143;54;19950;-67
2022/05/20 03:09:03;;;;;;;14.93;12.10;;;;;;;18.60;83.36;99290.03;2622608;54;20714;-67
2022/05/20 03:11:36;;;;;;;22.00;12.90;;;;;;;18.63;83.31;99286.88;2622044;54;20026;-68
2022/05/20 03:14:06;;;;;;;14.07;12.57;;;;;;;18.64;82.70;99283.97;2621523;54;20620;-66
2022/05/20 03:16:37;;;;;;;14.82;13.32;;;;;;;18.61;82.66;99284.41;2622564;54;20303;-67
2022/05/20 03:19:07;;;;;;;18.63;15.20;;;;;;;18.52;82.77;99278.59;2624919;54;20042;-67
2022/05/20 03:21:39;;;;;;;15.82;14.23;;;;;;;18.41;83.08;99292.81;2624426;47;20031;-66
2022/05/20 03:24:10;;;;;;;16.88;14.07;;;;;;;18.27;83.37;99289.53;2624665;54;20042;-68
2022/05/20 03:26:43;;;;;;;14.85;13.35;;;;;;;18.14;84.56;99287.06;2625293;39;20396;-66
2022/05/20 03:29:13;;;;;;;16.08;13.68;;;;;;;18.19;84.37;99283.69;2624404;54;20034;-66
2022/05/20 03:31:42;;;;;;;16.17;14.48;;;;;;;18.21;84.23;99285.09;2624947;54;20114;-66
2022/05/20 03:34:13;;;;;;;15.77;14.18;;;;;;;18.21;84.22;99274.41;2624290;54;20027;-66
2022/05/20 03:36:43;;;;;;;17.90;14.10;;;;;;;18.21;84.19;99279.75;2622314;54;20541;-67
2022/05/20 03:39:15;;;;;;;17.88;16.20;;;;;;;18.21;83.73;99269.06;2622195;54;20542;-67
2022/05/20 03:41:48;;;;;;;17.88;15.05;;;;;;;18.16;84.44;99268.09;2622821;54;20026;-67
2022/05/20 03:44:19;;;;;;;17.52;15.90;;;;;;;18.12;83.89;99270.41;2624370;54;20034;-66
2022/05/20 03:46:51;;;;;;;18.50;15.63;;;;;;;18.09;84.44;99268.22;2624784;54;20041;-65
2022/05/20 03:49:23;;;;;;;18.15;15.43;;;;;;;18.09;84.36;99265.53;2621954;54;20170;-67
2022/05/20 03:51:54;;;;;;;16.30;14.80;;;;;;;18.11;84.47;99260.75;2621818;54;20042;-66
2022/05/20 03:54:26;;;;;;;18.27;16.15;;;;;;;18.15;84.57;99256.59;2621945;54;20026;-66
2022/05/20 03:56:59;;;;;;;17.90;16.20;;;;;;;18.16;83.96;99255.53;2621033;54;20033;-66
2022/05/20 03:59:29;;;;;;;17.20;15.55;;;;;;;18.16;84.33;99254.72;2621386;54;20035;-67
2022/05/20 04:01:59;;;;;;;18.45;16.65;;;;;;;18.20;84.50;99253.22;2621458;54;20050;-66
2022/05/20 04:04:33;;;;;;;18.55;16.80;;;;;;;18.14;83.67;99251.47;2621032;54;20030;-66
2022/05/20 04:07:04;;;;;;;;;;;;;;;18.13;84.70;99268.59;2621290;54;20034;-67
2022/05/20 04:09:33;;;;;;;15.50;13.65;;;;;;;18.27;85.01;99273.47;2621042;54;19953;-66
2022/05/20 04:12:09;;;;;;;16.70;15.00;;;;;;;18.37;84.13;99288.97;2621074;54;20037;-68
2022/05/20 04:14:38;;;;;;;16.60;14.27;;;;;;;18.32;83.69;99291.50;2620990;54;20152;-67
2022/05/20 04:17:08;;;;;;;17.48;15.25;;;;;;;18.34;83.61;99286.75;2620534;54;20033;-66
2022/05/20 04:19:38;;;;;;;16.63;14.80;;;;;;;18.30;83.13;99285.59;2620976;54;20034;-67
2022/05/20 04:22:10;;;;;;;18.55;15.63;;;;;;;18.32;83.92;99291.50;2619588;47;20035;-67
2022/05/20 04:24:40;;;;;;;15.05;13.52;;;;;;;18.36;83.72;99294.53;2619302;54;20042;-66
2022/05/20 04:27:12;;;;;;;14.48;12.75;;;;;;;18.45;83.46;99291.31;2618999;54;20039;-69
2022/05/20 04:29:41;;;;;;;15.90;14.27;;;;;;;18.56;82.96;99303.06;2619317;54;20035;-67
2022/05/20 04:32:11;;;;;;;18.15;14.07;;;;;;;18.51;83.14;99300.25;2619020;54;20570;-66
2022/05/20 04:34:41;;;;;;;17.85;13.45;;;;;;;18.53;82.78;99308.88;2619026;54;20022;-65
2022/05/20 04:37:11;;;;;;;16.08;13.32;;;;;;;18.59;82.39;99312.50;2618890;54;20045;-65
2022/05/20 04:39:40;;;;;;;14.95;13.40;;;;;;;18.63;81.86;99322.50;2619195;54;20043;-66
2022/05/20 04:47:38;;;;;;;14.00;12.57;;;;;;;18.51;82.21;99322.50;2619684;54;20035;-67
2022/05/20 04:50:10;;;;;;;13.60;12.32;;;;;;;18.55;81.64;99315.63;2620418;54;20043;-65
2022/05/20 04:52:39;;;;;;;15.60;13.20;;;;;;;18.56;81.63;99322.59;2620599;47;20026;-65
2022/05/20 04:55:07;;;;;;;13.40;12.00;;;;;;;18.57;81.76;99328.78;2619986;54;20039;-66
2022/05/20 04:57:42;;;;;;;14.57;12.70;;;;;;;18.53;81.45;99335.63;2620673;54;20042;-65
2022/05/20 05:00:15;;;;;;;16.35;14.13;;;;;;;18.58;82.06;99343.81;2619757;51;20031;-66
2022/05/20 05:02:45;;;;;;;14.63;13.07;;;;;;;18.74;81.99;99339.66;2620483;54;20570;-66
2022/05/20 05:05:17;;;;;;;18.48;15.68;;;;;;;18.86;80.80;99335.13;2620438;54;20078;-67
2022/05/20 05:07:49;;;;;;;14.15;12.65;;;;;;;18.84;80.83;99339.88;2620484;54;20057;-68
2022/05/20 05:10:24;;;;;;;16.98;13.50;;;;;;;18.88;80.76;99346.41;2620291;54;20538;-67
2022/05/20 05:12:57;;;;;;;15.10;13.57;;;;;;;18.92;80.60;99336.84;2620573;54;20026;-66
2022/05/20 05:15:28;;;;;;;15.43;13.10;;;;;;;18.96;80.70;99337.22;2619733;47;20033;-66
2022/05/20 05:20:50;;;;;;;16.50;14.82;;;;;;;19.07;80.52;99328.34;2619629;47;20030;-66
2022/05/20 05:23:21;;;;;;;17.90;16.02;;;;;;;19.17;79.76;99330.41;2620417;54;20041;-67
2022/05/20 05:25:50;;;;;;;17.73;15.93;;;;;;;19.16;79.86;99318.88;2621291;54;20030;-67
2022/05/20 05:28:23;;;;;;;18.30;16.45;;;;;;;19.21;79.80;99312.81;2620995;54;20050;-66
2022/05/20 05:30:54;;;;;;;16.90;15.10;;;;;;;19.19;79.00;99314.94;2620738;54;20038;-66
2022/05/20 05:33:24;;;;;;;19.02;17.02;;;;;;;19.17;79.42;99312.47;2620328;54;20042;-67
2022/05/20 05:35:54;;;;;;;18.63;16.55;;;;;;;19.24;79.51;99326.56;2620052;54;20035;-68
2022/05/20 05:38:26;;;;;;;22.42;18.52;;;;;;;19.29;79.19;99323.97;2619959;54;20038;-66
2022/05/20 05:40:55;;;;;;;21.17;19.08;;;;;;;19.30;79.45;99314.88;2619740;54;20031;-65
2022/05/20 05:43:28;;;;;;;22.27;19.80;;;;;;;19.29;78.67;99305.22;2620068;54;20037;-66
2022/05/20 05:45:57;;;;;;;19.58;17.50;;;;;;;19.25;79.25;99308.63;2619544;54;20026;-65
2022/05/20 05:48:27;;;;;;;19.45;17.13;;;;;;;19.38;79.53;99313.69;2619725;54;20022;-66
2022/05/20 05:50:58;;;;;;;21.00;18.90;;;;;;;19.51;79.61;99321.50;2619283;54;20038;-66
2022/05/20 05:53:28;;;;;;;20.08;18.08;;;;;;;19.61;78.47;99312.84;2620542;54;20049;-67
2022/05/20 05:56:00;;;;;;;19.90;17.67;;;;;;;19.66;78.56;99314.81;2620220;39;20451;-68
2022/05/20 05:58:33;;;;;;;19.05;17.15;;;;;;;19.74;78.70;99317.94;2619117;54;20597;-68
2022/05/20 06:01:03;;;;;;;21.73;19.42;;;;;;;19.88;78.08;99313.09;2619430;54;20038;-66
2022/05/20 06:03:33;;;;;;;21.30;17.50;;;;;;;19.94;77.89;99305.94;2619642;54;20045;-67
2022/05/20 06:06:03;;;;;;;23.88;20.88;;;;;;;20.00;77.02;99310.34;2619293;54;20033;-68
2022/05/20 06:08:32;;;;;;;22.85;19.95;;;;;;;19.88;77.22;99305.06;2619195;54;20042;-68
2022/05/20 06:11:02;;;;;;;24.40;22.02;;;;;;;19.81;77.60;99304.38;2619615;54;20030;-66
2022/05/20 06:13:35;;;;;;;22.52;20.25;;;;;;;19.70;77.87;99314.09;2619899;54;20027;-66
2022/05/20 06:16:05;;;;;;;24.38;21.98;;;;;;;19.74;77.49;99306.38;2619443;54;20038;-65
2022/05/20 06:18:35;;;;;;;23.83;17.88;;;;;;;19.70;77.72;99305.25;2619969;54;20053;-67
2022/05/20 06:21:06;;;;;;;23.90;21.35;;;;;;;19.76;77.13;99305.09;2623548;47;20062;-68
2022/05/20 06:23:36;;;;;;;23.15;20.88;;;;;;;19.76;78.21;99306.97;2621727;54;20030;-66
2022/05/20 06:26:06;;;;;;;21.63;19.42;;;;;;;19.75;77.59;99299.97;2620102;39;20438;-66
2022/05/20 06:28:53;;;;;;;23.60;21.15;;;;;;;19.78;78.50;99308.34;2619184;47;20059;-66
2022/05/20 06:31:23;;;;;;;24.02;21.52;;;;;;;19.90;77.85;99305.63;2619829;46;20050;-66
2022/05/20 06:33:52;;;;;;;24.52;21.98;;;;;;;19.98;77.19;99307.09;2620474;39;20414;-65
2022/05/20 06:41:46;;;;;;;27.45;22.98;;;;;;;20.09;76.88;99302.72;2619013;39;20419;-66
2022/05/20 06:44:18;;;;;;;26.42;23.63;;;;;;;20.09;77.29;99300.84;2619356;54;20034;-65
2022/05/20 06:46:48;;;;;;;24.73;21.90;;;;;;;20.13;77.07;99309.25;2619346;54;20042;-66
2022/05/20 06:49:19;;;;;;;24.45;22.08;;;;;;;20.15;77.79;99302.56;2619776;54;20049;-67
2022/05/20 06:51:50;;;;;;;26.02;23.20;;;;;;;20.25;77.07;99297.38;2619377;54;20039;-66
2022/05/20 06:54:20;;;;;;;27.15;23.92;;;;;;;20.37;76.41;99305.34;2619423;54;20042;-67
2022/05/20 06:56:49;;;;;;;24.52;21.90;;;;;;;20.40;76.63;99293.28;2618804;47;20053;-72
2022/05/20 06:59:23;;;;;;;36.08;23.70;;;;;;;20.46;76.70;99287.75;2619267;54;20030;-66
2022/05/20 07:01:54;;;;;;;22.17;19.88;;;;;;;20.52;76.55;99297.53;2619239;54;20031;-66
2022/05/20 07:04:43;;;;;;;22.38;17.92;;;;;;;20.70;76.65;99280.38;2619084;54;20054;-65
2022/05/20 07:07:13;;;;;;;20.67;18.45;;;;;;;20.91;76.03;99280.66;2619007;54;20023;-66
2022/05/20 07:09:43;;;;;;;23.92;20.85;;;;;;;21.02;75.85;99274.31;2618850;39;20459;-65
2022/05/20 07:12:13;;;;;;;23.90;21.33;;;;;;;21.05;74.41;99271.13;2619154;54;20092;-66
2022/05/20 07:14:46;;;;;;;27.00;18.58;;;;;;;21.13;74.50;99269.91;2618987;54;20030;-66
2022/05/20 07:17:18;;;;;;;19.80;17.80;;;;;;;21.25;74.23;99265.22;2618961;54;20065;-65
2022/05/20 07:19:50;;;;;;;19.95;17.98;;;;;;;21.38;73.58;99262.16;2618887;54;20043;-65
2022/05/20 07:22:19;;;;;;;19.60;16.13;;;;;;;21.54;73.76;99255.06;2618598;54;20034;-66
2022/05/20 07:24:49;;;;;;;16.77;14.75;;;;;;;21.68;73.64;99259.00;2619518;54;20050;-67
2022/05/20 07:27:20;;;;;;;15.55;13.45;;;;;;;21.80;72.94;99248.09;2620019;54;20045;-66
2022/05/20 07:29:52;;;;;;;18.02;15.80;;;;;;;21.95;71.56;99250.88;2620836;39;20427;-68
2022/05/20 07:32:22;;;;;;;14.60;13.23;;;;;;;21.99;71.25;99237.72;2620855;54;20041;-68
2022/05/20 07:34:52;;;;;;;13.40;12.00;;;;;;;22.00;70.76;99242.03;2620823;54;20018;-69
2022/05/20 07:37:22;;;;;;;16.13;14.50;;;;;;;22.11;70.84;99232.97;2620563;54;20546;-67
2022/05/20 07:39:51;;;;;;;14.68;11.95;;;;;;;22.17;69.76;99237.38;2621238;54;20574;-67
2022/05/20 07:42:21;;;;;;;12.13;10.85;;;;;;;22.30;69.93;99238.00;2621005;54;20045;-68
2022/05/20 07:44:54;;;;;;;15.30;12.38;;;;;;;22.45;69.10;99236.25;2620980;54;20026;-67
2022/05/20 07:47:24;;;;;;;14.00;9.38;;;;;;;22.51;68.77;99242.47;2620555;54;20041;-66
2022/05/20 07:49:54;;;;;;;11.27;9.60;;;;;;;22.75;68.00;99238.28;2619825;47;20539;-67
2022/05/20 07:55:09;;;;;;;15.13;9.00;;;;;;;23.07;65.77;99234.69;2621156;54;20042;-67
2022/05/20 07:57:41;;;;;;;18.83;16.83;;;;;;;23.19;64.37;99229.88;2622781;54;20030;-68
2022/05/20 08:00:16;;;;;;;7.20;6.50;;;;;;;23.23;62.56;99236.38;2622419;54;20038;-68
2022/05/20 08:02:46;;;;;;;5.85;5.32;;;;;;;23.24;60.86;99246.09;2623356;39;20436;-67
2022/05/20 08:05:20;;;;;;;7.53;5.05;;;;;;;23.29;58.97;99233.69;2621204;54;20536;-68
2022/05/20 08:07:50;;;;;;;;;;;;;;;23.34;58.93;99236.41;2619721;39;20793;-66
2022/05/20 08:10:22;;;;;;;9.13;5.10;;;;;;;23.40;57.53;99235.34;2619164;54;19946;-67
2022/05/20 08:12:52;;;;;;;6.15;4.53;;;;;;;23.47;57.08;99227.78;2619707;39;20459;-67
2022/05/20 08:15:25;;;;;;;6.85;4.78;;;;;;;23.53;56.41;99224.03;2618661;54;20027;-67
2022/05/20 08:17:55;;;;;;;;;;;;;;;23.57;56.63;99227.00;2618593;54;20026;-66
2022/05/20 08:20:30;;;;;;;7.20;4.50;;;;;;;23.67;56.85;99213.56;2618317;54;19938;-67
2022/05/20 08:23:00;;;;;;;6.53;4.20;;;;;;;23.78;55.66;99212.50;2617892;47;20030;-68
2022/05/20 08:25:30;;;;;;;10.13;4.47;;;;;;;23.85;54.98;99214.94;2618349;54;20035;-66
2022/05/20 08:28:00;;;;;;;10.10;4.63;;;;;;;23.89;54.97;99213.31;2618053;54;20030;-66
2022/05/20 08:30:32;;;;;;;8.80;4.50;;;;;;;23.94;54.80;99211.41;2618500;54;20019;-66
2022/05/20 08:33:02;;;;;;;10.75;4.65;;;;;;;23.97;54.25;99218.97;2618326;54;20558;-66
2022/05/20 08:35:32;;;;;;;15.93;4.88;;;;;;;24.03;54.18;99214.38;2618846;39;20435;-66
2022/05/20 08:38:05;;;;;;;8.40;4.82;;;;;;;24.14;54.54;99217.88;2618075;54;20019;-66
2022/05/20 08:40:40;;;;;;;8.82;4.45;;;;;;;24.23;53.55;99216.25;2618257;54;20045;-67
2022/05/20 08:43:12;;;;;;;7.90;4.03;;;;;;;24.29;53.80;99220.59;2619426;39;20439;-66
2022/05/20 08:45:44;;;;;;;9.90;3.90;;;;;;;24.39;53.78;99212.47;2619389;47;20030;-66
2022/05/20 08:48:16;;;;;;;6.10;3.97;;;;;;;24.50;52.60;99213.28;2619778;54;20019;-66
2022/05/20 08:50:48;;;;;;;5.30;4.05;;;;;;;24.52;51.97;99213.81;2618653;39;20467;-65
2022/05/20 08:53:23;;;;;;;6.63;4.13;;;;;;;24.64;52.60;99206.19;2618540;54;20030;-67
2022/05/20 08:55:53;;;;;;;4.90;3.58;;;;;;;24.76;51.28;99202.38;2619168;54;20150;-67
2022/05/20 08:58:25;;;;;;;5.43;3.63;;;;;;;24.80;50.43;99200.75;2618604;54;20114;-66
2022/05/20 09:00:58;;;;;;;11.25;3.30;;;;;;;24.84;49.80;99188.28;2618645;47;20086;-66
2022/05/20 09:03:28;;;;;;;12.55;4.15;;;;;;;24.91;49.19;99188.81;2618913;54;20045;-66
2022/05/20 09:06:06;;;;;;;5.82;3.10;;;;;;;24.99;49.53;99195.53;2618446;54;20037;-67
2022/05/20 09:08:36;;;;;;;5.78;3.38;;;;;;;25.09;49.02;99182.00;2620835;54;20041;-71
2022/05/20 09:11:07;;;;;;;8.15;3.67;;;;;;;25.18;48.96;99180.31;2619306;54;20146;-67
2022/05/20 09:16:27;;;;;;;10.27;3.53;;;;;;;25.44;48.57;99159.31;2619049;54;20030;-66
2022/05/20 09:19:07;;;;;;;7.50;3.75;;;;;;;25.56;48.13;99154.38;2617615;47;20252;-66
2022/05/20 09:21:39;;;;;;;7.03;3.03;;;;;;;25.54;47.74;99153.81;2618680;54;20077;-65
2022/05/20 09:24:16;;;;;;;5.30;3.90;;;;;;;25.55;47.55;99150.03;2621702;54;20042;-66
2022/05/20 09:26:49;;;;;;;8.35;3.58;;;;;;;25.54;47.13;99148.41;2622310;47;20042;-68
2022/05/20 09:29:29;;;;;;;10.75;3.55;;;;;;;25.53;46.21;99144.09;2623436;54;20071;-66
2022/05/20 09:32:25;;;;;;;5.82;3.28;;;;;;;25.64;46.73;99136.72;2623257;54;20078;-66
2022/05/20 09:35:05;;;;;;;10.00;3.70;;;;;;;25.77;46.30;99140.66;2620550;54;20038;-67
2022/05/20 09:37:38;;;;;;;6.28;3.40;;;;;;;25.83;46.29;99137.63;2622831;54;20094;-67
2022/05/20 09:40:28;;;;;;;8.65;3.47;;;;;;;25.95;45.93;99129.13;2621438;46;20027;-66
2022/05/20 09:43:27;;;;;;;9.68;3.97;;;;;;;26.08;45.22;99122.25;2620251;39;20426;-65
2022/05/20 09:45:59;;;;;;;22.52;3.85;;;;;;;26.18;44.91;99128.38;2619782;54;20027;-66
2022/05/20 09:48:48;;;;;;;8.05;3.45;;;;;;;26.15;44.37;99118.09;2618263;54;20038;-66
2022/05/20 09:51:21;;;;;;;10.13;3.72;;;;;;;26.20;43.58;99114.53;2618166;47;20036;-66
2022/05/20 09:54:07;;;;;;;7.03;3.05;;;;;;;26.35;43.66;99129.81;2618384;54;20038;-65
2022/05/20 09:56:43;;;;;;;9.95;3.50;;;;;;;26.47;42.82;99127.53;2619308;54;20038;-67
2022/05/20 09:59:30;;;;;;;5.13;3.08;;;;;;;26.57;42.97;99115.75;2621450;31;20516;-67
2022/05/20 10:02:05;;;;;;;6.38;3.10;;;;;;;26.64;42.92;99114.31;2619255;54;20034;-65
2022/05/20 10:04:51;;;;;;;9.65;3.13;;;;;;;26.84;42.91;99121.38;2619629;54;20037;-67
2022/05/20 10:07:33;;;;;;;11.57;3.63;;;;;;;26.96;42.37;99096.53;2622433;54;20026;-67
2022/05/20 10:10:10;;;;;;;8.45;3.17;;;;;;;27.09;41.92;99117.50;2622862;54;20026;-67
2022/05/20 10:12:42;;;;;;;12.82;3.53;;;;;;;27.16;41.57;99119.88;2622823;47;20543;-69
2022/05/20 10:15:20;;;;;;;11.93;3.67;;;;;;;27.20;41.01;99120.91;2624997;39;20457;-66
2022/05/20 10:18:03;;;;;;;10.07;3.40;;;;;;;27.24;41.06;99121.94;2621334;47;20022;-67
2022/05/20 10:20:39;;;;;;;9.77;3.28;;;;;;;27.06;41.04;99104.50;2620806;54;20061;-66
2022/05/20 10:23:20;;;;;;;6.47;3.22;;;;;;;27.08;41.81;99098.81;2620578;54;20665;-66
2022/05/20 10:25:58;;;;;;;9.07;3.50;;;;;;;27.14;41.60;99081.38;2620569;54;20547;-67
2022/05/20 10:34:08;;;;;;;6.38;3.20;;;;;;;27.05;40.65;99026.94;2624195;54;20581;-67
2022/05/20 10:36:54;;;;;;;8.20;3.88;;;;;;;27.14;40.54;99025.19;2621410;54;20038;-67
2022/05/20 10:39:57;;;;;;;8.18;3.45;;;;;;;27.20;40.62;99008.84;2619637;46;20022;-67
2022/05/20 10:42:43;;;;;;;7.53;3.47;;;;;;;27.42;40.34;98971.78;2619437;54;20589;-67
2022/05/20 10:51:16;;;;;;;7.60;3.05;;;;;;;27.72;39.67;98937.03;2618721;47;20042;-66
2022/05/20 10:53:57;;;;;;;7.38;3.47;;;;;;;27.82;39.61;98931.41;2619386;54;20030;-67
2022/05/20 10:56:40;;;;;;;9.82;3.58;;;;;;;27.93;39.52;98920.34;2619349;54;20037;-67
2022/05/20 10:59:33;;;;;;;6.55;3.40;;;;;;;27.97;39.00;98905.06;2618985;54;20546;-69
2022/05/20 11:02:19;;;;;;;4.37;2.43;;;;;;;27.99;39.56;98905.53;2619639;54;20027;-71
2022/05/20 11:05:11;;;;;;;8.48;2.85;;;;;;;28.18;39.05;98902.69;2619215;54;20035;-69
2022/05/20 11:08:15;;;;;;;7.18;3.08;;;;;;;28.15;38.96;98904.09;2619196;54;20027;-68
2022/05/20 11:11:04;;;;;;;5.85;3.15;;;;;;;28.17;38.32;98904.59;2623310;39;20451;-69
2022/05/20 11:13:50;;;;;;;7.63;3.03;;;;;;;28.23;38.33;98913.44;2623410;54;20030;-68
2022/05/20 11:16:34;;;;;;;7.35;2.78;;;;;;;28.13;38.14;98923.44;2623228;54;20050;-68
2022/05/20 11:19:30;;;;;;;14.63;7.78;;;;;;;28.15;38.31;98923.91;2623155;54;20154;-68
2022/05/20 11:22:16;;;;;;;9.20;3.28;;;;;;;28.29;38.33;98913.03;2623148;54;20034;-68
2022/05/20 11:25:19;;;;;;;7.60;3.30;;;;;;;28.28;38.19;98908.69;2619910;54;20062;-67
2022/05/20 11:28:16;;;;;;;8.23;3.35;;;;;;;28.28;38.12;98910.59;2619155;39;20439;-68
2022/05/20 11:31:07;;;;;;;11.27;3.60;;;;;;;28.40;38.49;98900.03;2618563;54;20030;-68
2022/05/20 11:34:00;;;;;;;7.22;3.20;;;;;;;28.52;38.49;98899.47;2618810;54;20547;-68
2022/05/20 11:36:38;;;;;;;;;;;;;;;28.44;38.31;98884.69;2619170;54;20042;-68
2022/05/20 11:39:33;;;;;;;6.47;2.65;;;;;;;28.50;38.20;98883.47;2619019;39;20328;-68
2022/05/20 11:42:17;;;;;;;6.43;3.17;;;;;;;28.67;38.12;98874.63;2618843;54;20038;-66
2022/05/20 11:45:09;;;;;;;9.13;3.38;;;;;;;28.73;37.71;98873.38;2618863;54;20042;-66
2022/05/20 11:48:06;;;;;;;4.63;3.03;;;;;;;28.83;37.98;98875.84;2619195;39;20472;-69
2022/05/20 11:50:56;;;;;;;6.00;3.40;;;;;;;28.91;37.28;98871.59;2619491;54;20287;-67
2022/05/20 11:53:34;;;;;;;10.15;3.45;;;;;;;28.99;37.48;98881.75;2619760;54;20038;-68
2022/05/20 11:56:08;;;;;;;10.73;4.20;;;;;;;29.04;37.08;98872.63;2620694;54;20026;-67
2022/05/20 11:58:43;;;;;;;9.02;3.45;;;;;;;29.17;37.24;98870.94;2620340;54;20030;-67
2022/05/20 12:01:16;;;;;;;6.22;3.35;;;;;;;29.29;36.75;98873.88;2620173;54;20034;-69
2022/05/20 12:06:31;;;;;;;5.78;3.00;;;;;;;29.44;35.62;98869.94;2620852;54;20074;-70
2022/05/20 12:09:03;;;;;;;10.75;4.72;;;;;;;29.57;36.11;98863.59;2620003;54;20038;-68
2022/05/20 12:11:35;;;;;;;5.63;3.28;;;;;;;29.74;35.84;98860.88;2618810;54;20030;-68
2022/05/20 12:14:09;;;;;;;6.63;3.03;;;;;;;29.76;35.66;98853.22;2618152;51;20579;-68
2022/05/20 12:17:02;;;;;;;7.53;3.15;;;;;;;29.99;35.36;98851.16;2618820;54;20022;-68
2022/05/20 12:25:33;;;;;;;10.38;3.53;;;;;;;30.53;34.60;98824.34;2618752;39;20221;-69
2022/05/20 12:28:05;;;;;;;8.13;3.35;;;;;;;30.46;34.45;98829.53;2620160;54;20030;-68
2022/05/20 12:30:43;;;;;;;6.55;3.25;;;;;;;30.25;34.82;98850.38;2622026;54;20034;-68
2022/05/20 12:33:26;;;;;;;8.32;2.95;;;;;;;30.01;34.80;98856.28;2621108;54;20034;-68
2022/05/20 12:36:25;;;;;;;14.43;3.85;;;;;;;29.88;35.02;98849.84;2621976;54;20031;-68
2022/05/20 12:39:18;;;;;;;6.15;3.10;;;;;;;29.95;36.27;98835.75;2618714;54;20042;-69
2022/05/20 12:42:01;;;;;;;6.22;3.00;;;;;;;30.10;36.97;98830.63;2620450;54;20026;-68
2022/05/20 12:44:36;;;;;;;9.55;3.50;;;;;;;30.09;36.12;98853.56;2620179;54;20030;-68
2022/05/20 12:47:16;;;;;;;8.00;3.13;;;;;;;29.92;36.50;98874.53;2620471;54;20034;-68
2022/05/20 12:49:58;;;;;;;11.63;3.72;;;;;;;29.63;37.08;98903.16;2623071;54;20030;-67